createdAt,value
2023-05-12T00:00:59.986Z,96018.16
2023-05-12T00:03:26.366Z,96006.88
2023-05-12T00:05:52.808Z,96013.47
2023-05-12T00:08:19.095Z,96012.56
2023-05-12T00:10:45.385Z,96005.88
2023-05-12T00:13:11.776Z,96010.78
2023-05-12T00:15:38.113Z,96006.88
2023-05-12T00:18:04.446Z,96009.22
2023-05-12T00:20:32.697Z,95998.84
2023-05-12T00:22:58.995Z,95997.81
2023-05-12T00:25:25.292Z,95995.25
2023-05-12T00:27:51.619Z,95996.72
2023-05-12T00:30:18.026Z,95993.47
2023-05-12T00:32:44.488Z,96000.06
2023-05-12T00:35:10.824Z,95988.34
2023-05-12T00:37:37.124Z,95981.41
2023-05-12T00:40:03.445Z,95985.00
2023-05-12T00:42:29.787Z,95981.66
2023-05-12T00:44:56.088Z,95983.44
2023-05-12T00:47:22.379Z,95984.31
2023-05-12T00:49:48.697Z,95989.53
2023-05-12T00:52:14.990Z,95975.72
2023-05-12T00:54:41.295Z,95974.84
2023-05-12T00:57:07.667Z,95980.66
2023-05-12T00:59:33.974Z,95976.63
2023-05-12T01:02:00.275Z,95975.41
2023-05-12T01:04:26.590Z,95973.03
2023-05-12T01:06:52.886Z,95969.47
2023-05-12T01:09:19.193Z,95969.47
2023-05-12T01:11:45.518Z,95971.03
2023-05-12T01:14:11.851Z,95967.66
2023-05-12T01:16:38.160Z,95965.03
2023-05-12T01:19:04.521Z,95967.56
2023-05-12T01:21:30.843Z,95968.25
2023-05-12T01:23:57.298Z,95968.03
2023-05-12T01:26:23.633Z,95970.59
2023-05-12T01:28:49.944Z,95969.28
2023-05-12T01:31:16.796Z,95972.38
2023-05-12T01:33:44.189Z,95965.94
2023-05-12T01:36:10.494Z,95967.81
2023-05-12T01:38:36.785Z,95960.66
2023-05-12T01:41:03.171Z,95966.47
2023-05-12T01:43:29.465Z,95960.00
2023-05-12T01:45:55.764Z,95962.31
2023-05-12T01:48:22.094Z,95963.47
2023-05-12T01:50:48.385Z,95961.00
2023-05-12T01:53:14.682Z,95952.06
2023-05-12T01:55:41.012Z,95955.09
2023-05-12T01:58:07.317Z,95959.91
2023-05-12T02:00:33.639Z,95961.00
2023-05-12T02:03:00.060Z,95971.25
2023-05-12T02:05:26.407Z,95972.75
2023-05-12T02:07:52.707Z,95966.00
2023-05-12T02:10:19.214Z,95960.22
2023-05-12T02:12:45.658Z,95964.25
2023-05-12T02:15:11.947Z,95962.00
2023-05-12T02:17:38.351Z,95962.75
2023-05-12T02:20:04.673Z,95954.63
2023-05-12T02:22:30.960Z,95960.03
2023-05-12T02:24:57.281Z,95956.53
2023-05-12T02:27:23.577Z,95958.31
2023-05-12T02:29:49.877Z,95959.22
2023-05-12T02:32:16.198Z,95953.41
2023-05-12T02:34:42.500Z,95963.66
2023-05-12T02:37:08.807Z,95957.50
2023-05-12T02:39:35.128Z,95959.53
2023-05-12T02:42:01.430Z,95962.69
2023-05-12T02:44:27.722Z,95960.91
2023-05-12T02:46:54.046Z,95951.06
2023-05-12T02:49:20.350Z,95952.81
2023-05-12T02:51:46.646Z,95946.06
2023-05-12T02:54:12.962Z,95950.41
2023-05-12T02:56:39.289Z,95944.25
2023-05-12T02:59:05.584Z,95950.06
2023-05-12T03:01:31.922Z,95946.94
2023-05-12T03:03:58.233Z,95948.47
2023-05-12T03:06:24.550Z,95950.84
2023-05-12T03:08:50.905Z,95952.50
2023-05-12T03:11:17.215Z,95949.06
2023-05-12T03:13:43.519Z,95943.25
2023-05-12T03:16:09.849Z,95941.69
2023-05-12T03:18:36.172Z,95942.34
2023-05-12T03:21:02.469Z,95950.59
2023-05-12T03:23:28.801Z,95945.47
2023-05-12T03:25:55.100Z,95938.00
2023-05-12T03:28:21.482Z,95940.34
2023-05-12T03:30:47.794Z,95947.91
2023-05-12T03:33:14.118Z,95934.19
2023-05-12T03:35:40.416Z,95933.22
2023-05-12T03:38:06.735Z,95930.84
2023-05-12T03:40:33.032Z,95942.69
2023-05-12T03:42:59.348Z,95929.28
2023-05-12T03:45:25.673Z,95928.84
2023-05-12T03:47:52.015Z,95937.34
2023-05-12T03:50:18.452Z,95925.25
2023-05-12T03:52:44.832Z,95927.28
2023-05-12T03:55:11.134Z,95928.28
2023-05-12T03:57:37.432Z,95924.50
2023-05-12T04:00:03.744Z,95923.03
2023-05-12T04:02:30.119Z,95920.69
2023-05-12T04:04:56.482Z,95922.59
2023-05-12T04:07:22.820Z,95920.47
2023-05-12T04:09:49.106Z,95927.19
2023-05-12T04:12:15.401Z,95924.50
2023-05-12T04:14:43.431Z,95926.03
2023-05-12T04:17:09.873Z,95926.16
2023-05-12T04:19:36.182Z,95924.28
2023-05-12T04:22:02.525Z,95926.16
2023-05-12T04:24:28.827Z,95928.41
2023-05-12T04:26:55.149Z,95930.31
2023-05-12T04:29:21.573Z,95930.97
2023-05-12T04:31:47.960Z,95930.28
2023-05-12T04:34:14.324Z,95921.06
2023-05-12T04:36:40.650Z,95930.28
2023-05-12T04:39:06.961Z,95929.09
2023-05-12T04:41:33.261Z,95930.63
2023-05-12T04:44:00.880Z,95940.31
2023-05-12T04:46:27.347Z,95944.56
2023-05-12T04:48:53.675Z,95951.38
2023-05-12T04:51:20.002Z,95952.91
2023-05-12T04:53:46.328Z,95957.75
2023-05-12T04:56:12.622Z,95945.81
2023-05-12T04:58:38.947Z,95957.09
2023-05-12T05:01:05.255Z,95956.94
2023-05-12T05:03:31.733Z,95965.47
2023-05-12T05:05:58.183Z,95958.66
2023-05-12T05:08:24.479Z,95966.09
2023-05-12T05:10:50.778Z,95968.00
2023-05-12T05:13:17.095Z,95958.84
2023-05-12T05:15:43.451Z,95964.34
2023-05-12T05:18:09.836Z,95955.41
2023-05-12T05:20:40.680Z,95958.84
2023-05-12T05:23:09.418Z,95968.22
2023-05-12T05:25:35.773Z,95963.25
2023-05-12T05:28:02.084Z,95968.13
2023-05-12T05:30:28.387Z,95964.69
2023-05-12T05:32:54.731Z,95973.84
2023-05-12T05:35:21.378Z,95974.16
2023-05-12T05:37:47.951Z,95967.81
2023-05-12T05:40:14.297Z,95970.59
2023-05-12T05:42:40.712Z,95978.72
2023-05-12T05:45:07.024Z,95972.72
2023-05-12T05:47:33.350Z,95975.19
2023-05-12T05:49:59.684Z,95968.72
2023-05-12T05:52:26.016Z,95977.09
2023-05-12T05:54:52.347Z,95972.16
2023-05-12T05:57:18.644Z,95970.28
2023-05-12T05:59:44.956Z,95973.94
2023-05-12T06:02:11.323Z,95975.72
2023-05-12T06:04:37.658Z,95972.28
2023-05-12T06:07:03.966Z,95972.47
2023-05-12T06:09:30.308Z,95976.84
2023-05-12T06:11:56.606Z,95968.75
2023-05-12T06:14:22.898Z,95967.88
2023-05-12T06:16:49.238Z,95979.75
2023-05-12T06:19:15.617Z,95974.06
2023-05-12T06:21:41.976Z,95973.72
2023-05-12T06:24:08.357Z,95980.84
2023-05-12T06:26:34.663Z,95981.75
2023-05-12T06:29:00.955Z,95973.69
2023-05-12T06:31:27.314Z,95974.38
2023-05-12T06:33:53.642Z,95973.78
2023-05-12T06:36:19.950Z,95975.03
2023-05-12T06:38:46.278Z,95973.38
2023-05-12T06:41:12.598Z,95965.53
2023-05-12T06:43:38.909Z,95966.25
2023-05-12T06:46:05.265Z,95975.13
2023-05-12T06:48:31.604Z,95969.44
2023-05-12T06:50:57.914Z,95960.06
2023-05-12T06:53:25.604Z,95964.84
2023-05-12T06:55:52.114Z,95967.22
2023-05-12T06:58:18.410Z,95972.84
2023-05-12T07:00:44.713Z,95972.13
2023-05-12T07:03:11.071Z,95972.94
2023-05-12T07:05:37.460Z,95966.16
2023-05-12T07:08:03.820Z,95971.75
2023-05-12T07:10:30.125Z,95974.22
2023-05-12T07:12:56.419Z,95979.38
2023-05-12T07:15:23.002Z,95972.13
2023-05-12T07:17:49.452Z,95971.47
2023-05-12T07:20:15.796Z,95975.59
2023-05-12T07:22:42.120Z,95985.41
2023-05-12T07:25:08.497Z,95979.97
2023-05-12T07:27:34.823Z,95984.63
2023-05-12T07:30:01.191Z,95980.03
2023-05-12T07:32:27.529Z,95983.59
2023-05-12T07:34:53.830Z,95990.03
2023-05-12T07:37:20.160Z,95987.00
2023-05-12T07:39:46.481Z,95984.75
2023-05-12T07:42:12.786Z,95981.47
2023-05-12T07:44:39.130Z,95989.63
2023-05-12T07:47:05.481Z,95985.94
2023-05-12T07:49:31.820Z,95993.13
2023-05-12T07:51:58.145Z,95988.25
2023-05-12T07:54:24.462Z,95993.16
2023-05-12T07:56:50.770Z,95988.00
2023-05-12T07:59:17.106Z,95988.53
2023-05-12T08:01:43.424Z,95989.63
2023-05-12T08:04:09.852Z,95984.16
2023-05-12T08:06:36.237Z,95975.38
2023-05-12T08:09:02.544Z,95984.28
2023-05-12T08:11:28.841Z,95981.50
2023-05-12T08:13:55.158Z,95977.97
2023-05-12T08:16:21.453Z,95983.81
2023-05-12T08:18:47.825Z,95971.69
2023-05-12T08:21:14.187Z,95985.69
2023-05-12T08:23:40.479Z,95976.34
2023-05-12T08:26:06.769Z,95973.31
2023-05-12T08:28:33.092Z,95975.50
2023-05-12T08:30:59.844Z,95977.31
2023-05-12T08:33:27.246Z,95979.19
2023-05-12T08:35:53.605Z,95974.16
2023-05-12T08:38:19.910Z,95977.13
2023-05-12T08:40:46.207Z,95974.34
2023-05-12T08:43:12.522Z,95975.63
2023-05-12T08:45:38.814Z,95968.63
2023-05-12T08:48:05.167Z,95973.13
2023-05-12T08:50:31.548Z,95970.13
2023-05-12T08:52:57.938Z,95973.28
2023-05-12T08:55:28.536Z,95968.47
2023-05-12T08:57:57.733Z,95970.00
2023-05-12T09:00:24.174Z,95967.81
2023-05-12T09:02:54.513Z,95973.44
2023-05-12T09:05:21.411Z,95967.47
2023-05-12T09:07:48.058Z,95968.84
2023-05-12T09:10:25.901Z,95967.28
2023-05-12T09:12:58.935Z,95968.25
2023-05-12T09:15:25.245Z,95965.75
2023-05-12T09:17:51.576Z,95961.69
2023-05-12T09:20:27.868Z,95966.69
2023-05-12T09:22:57.011Z,95968.56
2023-05-12T09:25:23.331Z,95959.66
2023-05-12T09:27:49.649Z,95956.88
2023-05-12T09:30:15.967Z,95959.38
2023-05-12T09:32:42.314Z,95962.00
2023-05-12T09:35:08.638Z,95958.38
2023-05-12T09:37:34.921Z,95956.06
2023-05-12T09:40:01.321Z,95956.03
2023-05-12T09:42:27.639Z,95957.47
2023-05-12T09:44:53.950Z,95951.31
2023-05-12T09:47:20.269Z,95943.47
2023-05-12T09:49:46.568Z,95941.06
2023-05-12T09:52:12.882Z,95946.53
2023-05-12T09:54:39.209Z,95931.22
2023-05-12T09:57:05.522Z,95940.22
2023-05-12T09:59:31.814Z,95935.72
2023-05-12T10:01:58.265Z,95938.00
2023-05-12T10:04:24.584Z,95942.38
2023-05-12T10:06:50.951Z,95937.06
2023-05-12T10:09:17.255Z,95943.13
2023-05-12T10:11:43.539Z,95945.16
2023-05-12T10:14:09.976Z,95945.25
2023-05-12T10:16:36.370Z,95947.13
2023-05-12T10:19:02.773Z,95936.38
2023-05-12T10:21:29.089Z,95948.38
2023-05-12T10:23:55.435Z,95943.78
2023-05-12T10:26:21.730Z,95940.41
2023-05-12T10:28:48.021Z,95940.63
2023-05-12T10:31:14.408Z,95930.63
2023-05-12T10:33:40.738Z,95936.13
2023-05-12T10:36:07.099Z,95927.78
2023-05-12T10:38:33.431Z,95930.66
2023-05-12T10:40:59.734Z,95930.97
2023-05-12T10:43:26.048Z,95929.59
2023-05-12T10:45:52.412Z,95922.19
2023-05-12T10:48:18.772Z,95929.72
2023-05-12T10:50:45.080Z,95923.41
2023-05-12T10:53:11.405Z,95921.41
2023-05-12T10:55:37.791Z,95934.16
2023-05-12T10:58:04.567Z,95927.38
2023-05-12T11:00:31.370Z,95923.59
2023-05-12T11:05:24.611Z,95916.41
2023-05-12T11:07:52.563Z,95928.91
2023-05-12T11:10:19.512Z,95928.34
2023-05-12T11:12:46.208Z,95926.00
2023-05-12T11:15:12.546Z,95921.91
2023-05-12T11:17:39.196Z,95922.19
2023-05-12T11:20:05.529Z,95929.59
2023-05-12T11:22:31.893Z,95923.69
2023-05-12T11:24:58.259Z,95912.69
2023-05-12T11:27:24.703Z,95909.03
2023-05-12T11:29:51.022Z,95913.03
2023-05-12T11:32:17.319Z,95908.31
2023-05-12T11:34:43.613Z,95896.81
2023-05-12T11:37:09.939Z,95900.88
2023-05-12T11:39:36.254Z,95905.47
2023-05-12T11:42:12.053Z,95894.75
2023-05-12T11:44:39.997Z,95888.31
2023-05-12T11:47:06.300Z,95888.88
2023-05-12T11:49:32.621Z,95887.56
2023-05-12T11:52:00.011Z,95887.75
2023-05-12T11:54:26.324Z,95884.63
2023-05-12T11:56:52.610Z,95882.91
2023-05-12T11:59:18.917Z,95882.25
2023-05-12T12:01:45.207Z,95871.66
2023-05-12T12:04:11.531Z,95871.88
2023-05-12T12:06:37.849Z,95881.16
2023-05-12T12:09:04.168Z,95871.16
2023-05-12T12:11:30.478Z,95880.19
2023-05-12T12:13:57.012Z,95868.50
2023-05-12T12:16:23.382Z,95867.91
2023-05-12T12:18:49.739Z,95861.28
2023-05-12T12:21:17.732Z,95868.41
2023-05-12T12:23:50.930Z,95860.19
2023-05-12T12:26:18.144Z,95861.19
2023-05-12T12:28:44.444Z,95862.00
2023-05-12T12:31:10.793Z,95866.19
2023-05-12T12:33:37.171Z,95867.31
2023-05-12T12:36:03.487Z,95864.94
2023-05-12T12:38:29.798Z,95867.75
2023-05-12T12:40:56.124Z,95861.69
2023-05-12T12:43:22.529Z,95864.31
2023-05-12T12:45:48.841Z,95856.09
2023-05-12T12:48:15.196Z,95853.47
2023-05-12T12:50:41.549Z,95857.41
2023-05-12T12:53:07.853Z,95851.75
2023-05-12T12:55:34.211Z,95855.47
2023-05-12T12:58:00.525Z,95857.81
2023-05-12T13:00:26.863Z,95845.47
2023-05-12T13:02:53.421Z,95849.41
2023-05-12T13:05:20.306Z,95854.94
2023-05-12T13:07:46.825Z,95850.50
2023-05-12T13:10:13.155Z,95846.41
2023-05-12T13:12:39.463Z,95841.34
2023-05-12T13:15:05.759Z,95848.66
2023-05-12T13:17:32.087Z,95844.78
2023-05-12T13:19:58.400Z,95844.50
2023-05-12T13:22:24.700Z,95838.31
2023-05-12T13:24:51.024Z,95834.28
2023-05-12T13:27:17.315Z,95840.91
2023-05-12T13:29:43.628Z,95836.59
2023-05-12T13:32:09.965Z,95834.69
2023-05-12T13:34:36.296Z,95830.97
2023-05-12T13:37:02.622Z,95822.44
2023-05-12T13:39:28.943Z,95826.25
2023-05-12T13:41:55.235Z,95826.94
2023-05-12T13:44:21.548Z,95827.66
2023-05-12T13:46:47.916Z,95829.06
2023-05-12T13:49:14.250Z,95820.16
2023-05-12T13:51:40.550Z,95821.91
2023-05-12T13:54:06.897Z,95820.16
2023-05-12T13:56:33.191Z,95826.50
2023-05-12T13:58:59.483Z,95825.25
2023-05-12T14:01:25.824Z,95827.00
2023-05-12T14:03:52.175Z,95826.44
2023-05-12T14:06:18.487Z,95826.44
2023-05-12T14:08:44.853Z,95811.09
2023-05-12T14:11:11.145Z,95817.97
2023-05-12T14:13:37.445Z,95809.16
2023-05-12T14:16:03.795Z,95814.19
2023-05-12T14:18:30.215Z,95823.22
2023-05-12T14:20:56.562Z,95815.75
2023-05-12T14:23:22.893Z,95822.56
2023-05-12T14:25:49.209Z,95815.38
2023-05-12T14:28:15.551Z,95816.81
2023-05-12T14:30:42.083Z,95819.63
2023-05-12T14:33:08.476Z,95813.44
2023-05-12T14:35:34.802Z,95814.78
2023-05-12T14:38:01.160Z,95826.19
2023-05-12T14:40:27.528Z,95821.00
2023-05-12T14:42:53.839Z,95816.44
2023-05-12T14:45:20.422Z,95810.41
2023-05-12T14:47:46.962Z,95815.72
2023-05-12T14:50:13.323Z,95818.16
2023-05-12T14:52:39.680Z,95818.28
2023-05-12T14:55:07.753Z,95818.41
2023-05-12T14:57:35.210Z,95809.56
2023-05-12T15:00:01.572Z,95817.13
2023-05-12T15:02:27.978Z,95814.97
2023-05-12T15:04:54.335Z,95818.16
2023-05-12T15:07:20.691Z,95824.28
2023-05-12T15:09:46.982Z,95816.22
2023-05-12T15:12:13.286Z,95822.75
2023-05-12T15:14:39.594Z,95824.00
2023-05-12T15:17:05.996Z,95831.69
2023-05-12T15:19:32.297Z,95827.59
2023-05-12T15:21:58.622Z,95830.97
2023-05-12T15:24:24.920Z,95832.19
2023-05-12T15:26:51.221Z,95824.44
2023-05-12T15:29:17.545Z,95831.19
2023-05-12T15:31:44.006Z,95834.31
2023-05-12T15:34:10.386Z,95834.97
2023-05-12T15:36:36.717Z,95825.56
2023-05-12T15:39:03.020Z,95829.34
2023-05-12T15:41:29.328Z,95828.19
2023-05-12T15:43:55.650Z,95820.78
2023-05-12T15:46:22.013Z,95827.41
2023-05-12T15:48:48.325Z,95833.03
2023-05-12T15:51:14.645Z,95833.03
2023-05-12T15:53:40.943Z,95824.50
2023-05-12T15:56:07.244Z,95833.28
2023-05-12T15:58:33.575Z,95834.72
2023-05-12T16:00:59.886Z,95839.31
2023-05-12T16:03:26.422Z,95835.28
2023-05-12T16:05:52.925Z,95841.28
2023-05-12T16:08:19.227Z,95843.72
2023-05-12T16:10:45.521Z,95836.16
2023-05-12T16:13:11.836Z,95841.34
2023-05-12T16:15:38.155Z,95829.84
2023-05-12T16:18:04.535Z,95835.34
2023-05-12T16:20:30.913Z,95832.25
2023-05-12T16:22:57.214Z,95830.59
2023-05-12T16:25:23.600Z,95834.00
2023-05-12T16:27:50.169Z,95827.59
2023-05-12T16:30:19.149Z,95833.03
2023-05-12T16:32:46.358Z,95823.53
2023-05-12T16:35:12.699Z,95820.13
2023-05-12T16:37:39.002Z,95830.41
2023-05-12T16:40:05.303Z,95825.06
2023-05-12T16:42:31.631Z,95827.78
2023-05-12T16:44:57.929Z,95833.91
2023-05-12T16:47:24.277Z,95847.97
2023-05-12T16:49:50.657Z,95830.06
2023-05-12T16:52:16.954Z,95840.72
2023-05-12T16:54:43.264Z,95842.28
2023-05-12T16:57:09.574Z,95839.31
2023-05-12T16:59:35.866Z,95845.53
2023-05-12T17:02:02.373Z,95839.97
2023-05-12T17:04:28.891Z,95837.81
2023-05-12T17:06:55.228Z,95839.72
2023-05-12T17:09:21.517Z,95842.69
2023-05-12T17:11:47.888Z,95842.69
2023-05-12T17:14:14.180Z,95833.13
2023-05-12T17:16:40.555Z,95838.28
2023-05-12T17:21:36.108Z,95844.97
2023-05-12T17:24:02.415Z,95843.22
2023-05-12T17:26:28.728Z,95849.56
2023-05-12T17:28:55.029Z,95846.22
2023-05-12T17:31:21.350Z,95850.09
2023-05-12T17:33:47.694Z,95850.72
2023-05-12T17:36:13.995Z,95860.09
2023-05-12T17:38:40.305Z,95863.03
2023-05-12T17:41:06.626Z,95867.09
2023-05-12T17:43:32.934Z,95868.13
2023-05-12T17:45:59.243Z,95865.50
2023-05-12T17:48:25.558Z,95864.25
2023-05-12T17:50:51.849Z,95864.38
2023-05-12T17:53:18.163Z,95874.56
2023-05-12T17:55:44.564Z,95876.19
2023-05-12T17:58:10.888Z,95879.19
2023-05-12T18:00:37.213Z,95873.97
2023-05-12T18:03:03.764Z,95873.19
2023-05-12T18:05:30.208Z,95883.66
2023-05-12T18:07:56.513Z,95886.38
2023-05-12T18:10:22.853Z,95878.91
2023-05-12T18:12:49.133Z,95883.25
2023-05-12T18:15:15.422Z,95888.03
2023-05-12T18:17:41.819Z,95890.16
2023-05-12T18:20:08.270Z,95887.28
2023-05-12T18:22:34.560Z,95896.19
2023-05-12T18:25:00.896Z,95892.13
2023-05-12T18:27:27.189Z,95903.56
2023-05-12T18:29:53.489Z,95897.63
2023-05-12T18:32:19.806Z,95904.53
2023-05-12T18:34:46.101Z,95903.25
2023-05-12T18:37:12.394Z,95903.63
2023-05-12T18:39:38.762Z,95906.53
2023-05-12T18:42:05.085Z,95906.00
2023-05-12T18:44:31.377Z,95909.66
2023-05-12T18:46:57.773Z,95909.25
2023-05-12T18:49:24.199Z,95900.38
2023-05-12T18:51:50.506Z,95899.16
2023-05-12T18:54:16.820Z,95908.69
2023-05-12T18:56:43.127Z,95906.72
2023-05-12T18:59:09.441Z,95906.81
2023-05-12T19:01:35.829Z,95909.47
2023-05-12T19:04:02.157Z,95906.31
2023-05-12T19:06:28.496Z,95904.25
2023-05-12T19:08:54.816Z,95903.91
2023-05-12T19:11:21.126Z,95907.88
2023-05-12T19:13:47.418Z,95911.94
2023-05-12T19:16:13.734Z,95919.19
2023-05-12T19:18:40.052Z,95932.25
2023-05-12T19:21:06.384Z,95921.22
2023-05-12T19:23:32.737Z,95937.00
2023-05-12T19:25:59.029Z,95940.00
2023-05-12T19:28:25.333Z,95939.59
2023-05-12T19:30:51.646Z,95946.97
2023-05-12T19:33:18.066Z,95950.94
2023-05-12T19:35:44.410Z,95948.13
2023-05-12T19:38:10.717Z,95953.34
2023-05-12T19:40:37.004Z,95950.09
2023-05-12T19:43:03.281Z,95950.41
2023-05-12T19:45:29.612Z,95957.47
2023-05-12T19:47:55.961Z,95963.06
2023-05-12T19:50:22.295Z,95963.25
2023-05-12T19:52:48.610Z,95971.34
2023-05-12T19:55:14.897Z,95966.78
2023-05-12T19:57:41.172Z,95961.97
2023-05-12T20:00:07.475Z,95973.19
2023-05-12T20:02:33.895Z,95970.06
2023-05-12T20:05:00.210Z,95966.16
2023-05-12T20:07:26.514Z,95965.41
2023-05-12T20:09:52.793Z,95966.81
2023-05-12T20:12:19.074Z,95964.47
2023-05-12T20:14:45.377Z,95975.78
2023-05-12T20:17:11.737Z,95973.97
2023-05-12T20:19:38.093Z,95974.56
2023-05-12T20:22:04.400Z,95980.69
2023-05-12T20:24:30.703Z,95979.13
2023-05-12T20:26:56.985Z,95973.22
2023-05-12T20:29:23.333Z,95977.69
2023-05-12T20:31:49.732Z,95979.44
2023-05-12T20:34:16.139Z,95982.72
2023-05-12T20:36:42.466Z,95996.56
2023-05-12T20:39:08.791Z,95993.44
2023-05-12T20:41:35.091Z,95995.16
2023-05-12T20:44:01.513Z,95988.34
2023-05-12T20:46:27.898Z,95991.28
2023-05-12T20:48:54.279Z,95996.59
2023-05-12T20:51:20.579Z,95998.78
2023-05-12T20:53:46.865Z,95989.09
2023-05-12T20:56:13.275Z,96004.97
2023-05-12T20:58:39.602Z,95995.31
2023-05-12T21:01:05.912Z,96000.31
2023-05-12T21:03:32.217Z,96007.19
2023-05-12T21:05:58.556Z,96009.53
2023-05-12T21:08:24.847Z,96007.50
2023-05-12T21:10:51.161Z,96009.06
2023-05-12T21:13:17.503Z,96002.34
2023-05-12T21:15:43.815Z,96004.38
2023-05-12T21:18:10.206Z,96012.03
2023-05-12T21:20:36.548Z,96011.88
2023-05-12T21:23:02.943Z,96016.72
2023-05-12T21:25:29.239Z,96014.34
2023-05-12T21:27:55.664Z,96017.50
2023-05-12T21:30:22.113Z,96025.91
2023-05-12T21:32:48.653Z,96013.59
2023-05-12T21:35:15.059Z,96018.09
2023-05-12T21:37:41.360Z,96016.22
2023-05-12T21:40:07.681Z,96021.53
2023-05-12T21:42:34.011Z,96016.25
2023-05-12T21:45:00.313Z,96017.59
2023-05-12T21:47:26.641Z,96014.50
2023-05-12T21:49:53.007Z,96023.53
2023-05-12T21:52:19.293Z,96018.56
2023-05-12T21:54:45.592Z,96021.53
2023-05-12T21:57:11.906Z,96016.69
2023-05-12T21:59:38.200Z,96024.66
2023-05-12T22:02:04.513Z,96026.66
2023-05-12T22:04:30.824Z,96023.56
2023-05-12T22:06:58.242Z,96022.94
2023-05-12T22:09:24.552Z,96027.75
2023-05-12T22:11:50.860Z,96025.56
2023-05-12T22:14:17.145Z,96032.59
2023-05-12T22:16:43.487Z,96038.38
2023-05-12T22:19:09.850Z,96031.97
2023-05-12T22:21:36.192Z,96029.94
2023-05-12T22:24:02.488Z,96027.75
2023-05-12T22:26:28.806Z,96038.06
2023-05-12T22:28:55.089Z,96037.72
2023-05-12T22:31:21.416Z,96038.19
2023-05-12T22:33:47.771Z,96046.16
2023-05-12T22:36:17.159Z,96046.63
2023-05-12T22:38:43.460Z,96044.59
2023-05-12T22:41:09.800Z,96036.47
2023-05-12T22:43:36.120Z,96048.34
2023-05-12T22:46:02.427Z,96041.31
2023-05-12T22:48:30.595Z,96047.69
2023-05-12T22:50:58.372Z,96048.34
2023-05-12T22:53:24.671Z,96045.09
2023-05-12T22:55:50.989Z,96043.81
2023-05-12T22:58:17.284Z,96048.03
2023-05-12T23:00:43.670Z,96046.63
2023-05-12T23:03:10.026Z,96046.63
2023-05-12T23:05:36.410Z,96036.34
2023-05-12T23:08:02.714Z,96043.50
2023-05-12T23:10:29.033Z,96036.81
2023-05-12T23:12:55.322Z,96048.78
2023-05-12T23:15:21.621Z,96040.38
2023-05-12T23:17:47.965Z,96049.25
2023-05-12T23:20:14.293Z,96041.47
2023-05-12T23:22:40.622Z,96038.06
2023-05-12T23:25:06.934Z,96048.63
2023-05-12T23:27:33.235Z,96044.44
2023-05-12T23:29:59.536Z,96042.41
2023-05-12T23:32:26.006Z,96046.47
2023-05-12T23:34:52.460Z,96039.44
2023-05-12T23:37:18.767Z,96038.66
2023-05-12T23:39:45.097Z,96044.41
2023-05-12T23:42:11.410Z,96050.97
2023-05-12T23:44:37.696Z,96040.53
2023-05-12T23:47:04.056Z,96037.06
2023-05-12T23:49:30.354Z,96042.69
2023-05-12T23:51:56.653Z,96038.16
2023-05-12T23:54:22.981Z,96036.09
2023-05-12T23:56:49.278Z,96042.31
2023-05-12T23:59:15.577Z,96046.53
